• Join FlightAware (Why Join?)
  • Login
  • US Flag 
10:01PM EDT


 

Airport Tracker/Info


-or-


 

Live Flight TrackerFlight Track Log ✈ N123TB ✈ 10-May-2013 ✈ KTYS - KPHF

Flight Track Log - Related Links

Times and Time Zones

All times are in EDT time to prevent confusion due to time zone crossing. See the N123TB flight status page for this flight to view local times or setup timezone preferences in your user account.

Time Position Orientation Groundspeed Altitude Reporting Facility
EDT Latitude Longitude Course Direction KTS MPH feet Rate Location/Type
02:28PM 35.7808 -83.9772 98° East 146 168 3,300  Level Atlanta Center
02:29PM 35.7786 -83.9261 93° East 154 177 4,300 1,080 Climbing Atlanta Center
02:30PM 35.7808 -83.8697 87° East 154 177 5,500 1,200 Climbing Atlanta Center
02:31PM 35.7806 -83.8161 90° East 159 183 6,700 1,200 Climbing Atlanta Center
02:32PM 35.8789 -83.6693 90° East  Level Estimated
02:32PM 35.7825 -83.7622 87° East 159 183 8,000  Level Atlanta Center
02:33PM 35.7825 -83.7061 90° East 153 176 8,900 1,020 Climbing Atlanta Center
02:34PM 35.7864 -83.6472 85° East 160 184 10,100 1,200 Climbing Atlanta Center
02:35PM 35.7864 -83.5881 90° East 160 184 11,400 1,200 Climbing Atlanta Center
02:36PM 35.7839 -83.5294 93° East 165 190 12,600 1,080 Climbing Atlanta Center
02:37PM 35.7858 -83.4706 88° East 165 190 13,600 1,080 Climbing Atlanta Center
02:38PM 35.7856 -83.4117 90° East 165 190 14,800 1,020 Climbing Atlanta Center
02:39PM 35.7872 -83.3475 88° East 176 203 15,700 900 Climbing Atlanta Center
02:40PM 35.7889 -83.2783 88° East 182 209 16,700 660 Climbing Atlanta Center
02:41PM 35.7842 -83.1939 94° East 202 232 17,100 180 Climbing Atlanta Center
02:42PM 35.7856 -83.1119 89° East 229 264 17,100 -60 Level Atlanta Center
02:43PM 35.7892 -83.0300 87° East 237 273 17,000  Descending Atlanta Center
02:44PM 35.7906 -82.9481 89° East 230 265 17,100  Climbing Atlanta Center
02:45PM 35.7919 -82.8689 89° East 230 265 17,100  Level Atlanta Center
02:46PM 35.7975 -82.7842 85° East 236 272 17,100  Level Atlanta Center
02:47PM 35.8006 -82.7022 87° East 236 272 17,100  Level Atlanta Center
02:48PM 35.8103 -82.6175 82° East 236 272 17,100  Level Atlanta Center
02:49PM 35.8342 -82.5378 70° East 241 277 17,100  Level Atlanta Center
02:50PM 35.8561 -82.4581 71° East 247 284 17,100 -60 Level Atlanta Center
02:51PM 35.8844 -82.3806 66° East 247 284 17,000  Descending Atlanta Center
02:52PM 35.9103 -82.3031 68° East 241 277 17,100  Climbing Atlanta Center
02:53PM 35.9303 -82.2308 71° East 241 277 17,000  Descending Atlanta Center
02:54PM 35.9433 -82.1408 80° East 241 277 17,100  Climbing Atlanta Center
02:55PM 35.9464 -82.0586 87° East 236 272 17,100  Level Atlanta Center
02:56PM 35.9408 -81.9767 95° East 236 272 17,100  Level Atlanta Center
02:57PM 35.9497 -81.8944 82° East 236 272 17,100  Level Atlanta Center
02:58PM 35.9756 -81.8167 68° East 236 272 17,100  Level Atlanta Center
02:59PM 35.9928 -81.7367 75° East 241 277 17,100  Level Atlanta Center
03:00PM 36.0039 -81.6542 81° East 241 277 17,100  Level Atlanta Center
03:02PM 36.0131 -81.4947 86° East 236 272 17,100  Level Atlanta Center
03:03PM 36.0239 -81.4122 81° East 236 272 17,100  Level Atlanta Center
03:04PM 36.0344 -81.3272 81° East 236 272 17,100  Level Atlanta Center
03:05PM 36.0453 -81.2447 81° East 236 272 17,100  Level Atlanta Center
03:06PM 36.0556 -81.1544 82° East 236 272 17,100  Level Atlanta Center
03:07PM 36.0661 -81.0719 81° East 244 281 17,100  Level Atlanta Center
03:08PM 36.0767 -80.9892 81° East 239 275 17,100  Level Atlanta Center
03:09PM 36.0872 -80.9067 81° East 239 275 17,100  Level Atlanta Center
03:10PM 36.0956 -80.8242 83° East 239 275 17,100  Level Atlanta Center
03:11PM 36.1058 -80.7439 81° East 239 275 17,100  Level Atlanta Center
03:12PM 36.1161 -80.6614 81° East 239 275 17,100  Level Atlanta Center
03:13PM 36.1242 -80.5761 83° East 239 275 17,100  Level Atlanta Center
03:14PM 36.1325 -80.5014 82° East 239 275 17,100  Level Atlanta Center
03:15PM 36.1425 -80.4186 81° East 239 275 17,100  Level Atlanta Center
03:16PM 36.1506 -80.3358 83° East 239 275 17,100  Level Atlanta Center
03:18PM 36.1725 -80.1772 80° East 235 270 17,100  Level Washington Center
03:19PM 36.1792 -80.1133 83° East 235 270 17,100  Level Washington Center
03:20PM 36.1886 -80.0289 82° East 235 270 17,100  Level Washington Center
03:21PM 36.2000 -79.9472 80° East 235 270 17,100  Level Washington Center
03:22PM 36.2069 -79.8653 84° East 235 270 17,100  Level Washington Center
03:23PM 36.2139 -79.7858 84° East 235 270 17,100  Level Washington Center
03:24PM 36.2211 -79.7011 84° East 241 277 17,100  Level Washington Center
03:25PM 36.2242 -79.6139 87° East 232 267 17,100  Level Washington Center
03:26PM 36.2308 -79.5394 84° East 232 267 17,100  Level Washington Center
03:27PM 36.2356 -79.4547 86° East 232 267 17,100  Level Washington Center
03:28PM 36.2400 -79.3803 86° East 232 267 17,100  Level Washington Center
03:29PM 36.2469 -79.2956 84° East 232 267 17,100  Level Washington Center
03:30PM 36.2511 -79.2236 86° East 232 267 17,100  Level Washington Center
03:31PM 36.2558 -79.1364 86° East 232 267 17,100  Level Washington Center
03:32PM 36.2600 -79.0669 86° East 232 267 17,100  Level Washington Center
03:33PM 36.2644 -78.9822 86° East 232 267 17,100  Level Washington Center
03:34PM 36.2686 -78.9103 86° East 232 267 17,100  Level Washington Center
03:35PM 36.2753 -78.8253 84° East 232 267 17,100  Level Washington Center
03:36PM 36.2772 -78.7456 88° East 232 267 17,100  Level Washington Center
03:37PM 36.2833 -78.6764 84° East 232 267 17,100  Level Washington Center
03:38PM 36.2897 -78.5889 85° East 232 267 17,100  Level Washington Center
03:39PM 36.2933 -78.5194 86° East 232 267 17,100  Level Washington Center
03:40PM 36.2975 -78.4347 86° East 227 261 17,100  Level Washington Center
03:41PM 36.3014 -78.3625 86° East 227 261 17,100  Level Washington Center
03:42PM 36.3053 -78.2803 87° East 227 261 17,100  Level Washington Center
03:43PM 36.3089 -78.2081 86° East 227 261 17,100  Level Washington Center
03:44PM 36.3150 -78.1233 85° East 227 261 17,100  Level Washington Center
03:45PM 36.3189 -78.0436 87° East 227 261 17,100  Level Washington Center
03:46PM 36.3225 -77.9664 87° East 227 261 17,100  Level Washington Center
03:47PM 36.3261 -77.8864 87° East 227 261 17,100  Level Washington Center
03:48PM 36.3317 -77.8092 85° East 227 261 17,100  Level Washington Center
03:49PM 36.3353 -77.7319 87° East 227 261 17,100  Level Washington Center
03:50PM 36.3408 -77.6547 85° East 222 255 17,100  Level Washington Center
03:51PM 36.3419 -77.5750 89° East 222 255 17,100  Level Washington Center
03:52PM 36.3453 -77.4978 87° East 222 255 17,100  Level Washington Center
03:53PM 36.3486 -77.4281 87° East 222 255 17,100 -120 Level Washington Center
03:54PM 36.3517 -77.3508 87° East 222 255 16,900 -420 Descending Washington Center
03:55PM 36.3550 -77.2683 87° East 222 255 16,300 -720 Descending Washington Center
03:55PM 36.3578 -77.2142 86° East 239 275 15,800 -840 Descending Washington Center
03:56PM 36.3583 -77.1883 88° East 227 261 15,500 -960 Descending Washington Center
03:56PM 36.3611 -77.1189 87° East 244 281 14,800 -900 Descending Washington Center
03:57PM 36.3594 -77.0931 95° East 238 274 14,600 -720 Descending Washington Center
03:57PM 36.3622 -77.0339 87° East 244 281 14,100 -720 Descending Washington Center
03:58PM 36.3689 -77.0108 70° East 238 274 13,900 -720 Descending Washington Center
03:58PM 36.4089 -76.9856 27° Northeast 227 261 13,400 -780 Descending Washington Center
03:59PM 36.4697 -76.9556 22° Northeast 227 261 12,600 -840 Descending Washington Center
04:00PM 36.5283 -76.9206 26° Northeast 225 259 11,800 -900 Descending Washington Center
04:01PM 36.5892 -76.8881 23° Northeast 229 264 10,900 -840 Descending Washington Center
04:03PM 36.6544 -76.8475 26° Northeast 226 260 10,100 -780 Descending Washington Center
04:04PM 36.7025 -76.8250 21° North 223 257 9,400 -900 Descending Washington Center
04:05PM 36.7633 -76.7950 22° Northeast 221 254 8,500 -840 Descending Washington Center
04:06PM 36.8200 -76.7697 20° North 222 255 7,700 -780 Descending Washington Center
04:07PM 36.8744 -76.7394 24° Northeast 219 252 7,000 -720 Descending Washington Center
04:08PM 36.9353 -76.7039 25° Northeast 217 250 6,300 -720 Descending Washington Center
04:09PM 36.9897 -76.6761 22° Northeast 217 250 5,600 -600 Descending Washington Center
04:10PM 37.0464 -76.6483 21° North 212 244 5,100 -300 Descending Washington Center
04:11PM 37.0947 -76.6256 21° North 185 213 5,000 -840 Descending Washington Center
04:12PM 37.1386 -76.5844 37° Northeast 211 243 3,400 -1,500 Descending Washington Center
04:13PM 37.1642 -76.5222 63° Northeast 202 232 2,000 -900 Descending Washington Center
04:14PM 37.1792 -76.4678 71° East 155 178 1,600 -600 Descending Washington Center
04:15PM 37.1503 -76.4544 160° South 111 128 900 -720 Descending Washington Center
04:17PM 37.1167 -76.4833 195° South  Level FlightAware Approximate